Time;durP1;ratioP1;P1;durP2;ratioP2;P2;SDS_P1;SDS_P2;PMS_P1;PMS_P2;Temp;Humidity;BMP_temperature;BMP_pressure;BME280_temperature;BME280_humidity;BME280_pressure;Samples;Min_cycle;Max_cycle;Signal;HPM_P1;HPM_P2
2023/10/24 00:01:07;;;;;;;20.50;13.18;;;10.90;99.90;;;;;;4996873;28;20057;-59
2023/10/24 00:03:33;;;;;;;18.08;12.50;;;10.90;99.90;;;;;;4996030;28;20408;-60
2023/10/24 00:05:58;;;;;;;18.58;13.00;;;10.80;99.90;;;;;;5010917;28;20049;-60
2023/10/24 00:08:24;;;;;;;19.30;12.57;;;10.80;99.90;;;;;;5000327;28;20041;-60
2023/10/24 00:10:59;;;;;;;17.25;12.38;;;10.80;99.90;;;;;;5038018;28;20045;-60
2023/10/24 00:13:24;;;;;;;17.67;12.10;;;10.90;99.90;;;;;;5021744;28;20497;-60
2023/10/24 00:15:50;;;;;;;17.38;12.20;;;10.80;99.90;;;;;;5024435;28;20037;-60
2023/10/24 00:18:16;;;;;;;20.60;11.93;;;10.80;99.90;;;;;;5023048;28;20385;-60
2023/10/24 00:20:41;;;;;;;22.77;13.43;;;10.80;99.90;;;;;;5010038;28;20093;-59
2023/10/24 00:23:07;;;;;;;17.38;12.07;;;10.80;99.90;;;;;;5007560;28;20385;-60
2023/10/24 00:25:33;;;;;;;19.73;11.88;;;10.80;99.90;;;;;;5021940;28;20091;-60
2023/10/24 00:27:59;;;;;;;16.88;12.02;;;10.80;99.90;;;;;;5023429;28;20133;-60
2023/10/24 00:30:25;;;;;;;20.73;13.77;;;10.80;99.90;;;;;;5013461;28;20061;-60
2023/10/24 00:32:50;;;;;;;19.58;12.63;;;10.80;99.90;;;;;;5021333;28;20056;-60
2023/10/24 00:35:17;;;;;;;20.10;13.55;;;10.80;99.90;;;;;;5037010;28;20057;-60
2023/10/24 00:37:43;;;;;;;17.23;12.18;;;10.80;99.90;;;;;;5018715;28;20099;-60
2023/10/24 00:40:10;;;;;;;19.52;13.40;;;10.80;99.90;;;;;;5023456;28;20091;-60
2023/10/24 00:42:36;;;;;;;15.70;11.73;;;10.80;99.90;;;;;;5008030;28;20075;-60
2023/10/24 00:45:01;;;;;;;21.35;12.70;;;10.80;99.90;;;;;;5024650;28;20073;-60
2023/10/24 00:47:27;;;;;;;21.33;13.43;;;10.80;99.90;;;;;;5020645;28;20083;-60
2023/10/24 00:49:53;;;;;;;19.63;13.07;;;10.80;99.90;;;;;;5022879;28;20051;-60
2023/10/24 00:52:20;;;;;;;20.42;13.48;;;10.80;99.90;;;;;;5023551;28;20033;-60
2023/10/24 00:54:47;;;;;;;19.77;12.77;;;10.70;99.90;;;;;;5021196;28;20493;-60
2023/10/24 00:57:13;;;;;;;20.60;13.70;;;10.80;99.90;;;;;;5024007;28;20052;-58
2023/10/24 00:59:43;;;;;;;20.85;13.73;;;10.70;99.90;;;;;;5020101;28;20156;-59
2023/10/24 01:02:10;;;;;;;21.95;13.38;;;10.70;99.90;;;;;;5022946;28;20044;-60
2023/10/24 01:04:37;;;;;;;22.33;13.82;;;10.70;99.90;;;;;;5023298;28;20108;-60
2023/10/24 01:07:03;;;;;;;20.27;14.07;;;10.70;99.90;;;;;;5023653;28;20052;-60
2023/10/24 01:09:28;;;;;;;21.48;13.15;;;10.70;99.90;;;;;;5019078;28;20045;-59
2023/10/24 01:11:55;;;;;;;20.52;14.13;;;10.70;99.90;;;;;;5013424;28;20033;-60
2023/10/24 01:14:20;;;;;;;21.85;14.15;;;10.70;99.90;;;;;;5017658;28;20045;-60
2023/10/24 01:16:46;;;;;;;23.77;15.07;;;10.60;99.90;;;;;;5021050;28;20044;-60
2023/10/24 01:19:12;;;;;;;17.23;12.45;;;10.60;99.90;;;;;;5037516;28;20045;-60
2023/10/24 01:21:46;;;;;;;24.17;15.25;;;10.60;99.90;;;;;;5021439;28;20112;-60
2023/10/24 01:24:12;;;;;;;;;;;10.70;99.90;;;;;;5020913;28;20060;-60
2023/10/24 01:26:39;;;;;;;20.65;13.60;;;10.60;99.90;;;;;;5020272;28;19963;-57
2023/10/24 01:29:05;;;;;;;22.70;14.73;;;10.60;99.90;;;;;;5022233;28;20049;-58
2023/10/24 01:31:31;;;;;;;22.63;15.40;;;10.60;99.90;;;;;;5021973;28;20053;-59
2023/10/24 01:33:57;;;;;;;27.42;14.45;;;10.60;99.90;;;;;;5020639;28;20045;-58
2023/10/24 01:36:23;;;;;;;23.77;16.00;;;10.60;99.90;;;;;;5020681;28;20037;-54
2023/10/24 01:38:48;;;;;;;25.50;16.33;;;10.60;99.90;;;;;;5022348;28;20291;-57
2023/10/24 01:41:14;;;;;;;23.40;14.13;;;10.60;99.90;;;;;;5020451;28;20045;-57
2023/10/24 01:43:40;;;;;;;25.38;16.38;;;10.60;99.90;;;;;;5006587;28;20512;-58
2023/10/24 01:46:05;;;;;;;23.23;15.88;;;10.60;99.90;;;;;;5001552;28;20045;-54
2023/10/24 01:48:31;;;;;;;27.23;16.00;;;10.60;99.90;;;;;;5002616;28;20049;-60
2023/10/24 01:50:57;;;;;;;24.08;16.52;;;10.60;99.90;;;;;;5017460;28;20053;-60
2023/10/24 01:53:22;;;;;;;24.00;16.52;;;10.60;99.90;;;;;;5022490;28;20037;-60
2023/10/24 01:55:48;;;;;;;30.30;18.50;;;10.50;99.90;;;;;;5022898;28;20037;-61
2023/10/24 01:58:14;;;;;;;26.85;16.65;;;10.50;99.90;;;;;;5022377;28;20048;-59
2023/10/24 02:00:39;;;;;;;29.33;17.70;;;10.60;99.90;;;;;;5006445;28;20576;-58
2023/10/24 02:03:05;;;;;;;22.25;15.43;;;10.60;99.90;;;;;;4998706;28;20049;-59
2023/10/24 02:05:31;;;;;;;24.65;16.25;;;10.60;99.90;;;;;;5002836;28;20411;-58
2023/10/24 02:07:56;;;;;;;24.08;16.15;;;10.60;99.90;;;;;;5016110;28;20485;-59
2023/10/24 02:10:23;;;;;;;24.90;16.95;;;10.50;99.90;;;;;;5017634;28;20072;-57
2023/10/24 02:12:49;;;;;;;25.92;17.02;;;10.60;99.90;;;;;;5021476;28;20077;-57
2023/10/24 02:15:14;;;;;;;29.02;19.27;;;10.50;99.90;;;;;;5019930;28;20073;-59
2023/10/24 02:17:43;;;;;;;29.27;18.30;;;10.60;99.90;;;;;;5025583;28;20054;-59
2023/10/24 02:20:09;;;;;;;25.48;17.00;;;10.50;99.90;;;;;;4998166;28;20518;-57
2023/10/24 02:22:35;;;;;;;27.15;16.02;;;10.50;99.90;;;;;;5010910;28;20049;-55
2023/10/24 02:25:01;;;;;;;28.80;17.58;;;10.60;99.90;;;;;;5020878;28;20030;-58
2023/10/24 02:27:27;;;;;;;21.10;15.15;;;10.50;99.90;;;;;;5023108;28;20039;-59
2023/10/24 02:29:53;;;;;;;23.85;15.90;;;10.60;99.90;;;;;;5022738;28;20041;-58
2023/10/24 02:32:19;;;;;;;28.55;17.45;;;10.60;99.90;;;;;;5024128;28;20045;-57
2023/10/24 02:34:49;;;;;;;21.10;15.40;;;10.50;99.90;;;;;;5023523;28;20111;-57
2023/10/24 02:37:15;;;;;;;20.92;14.50;;;10.50;99.90;;;;;;5020367;28;20043;-57
2023/10/24 02:39:41;;;;;;;24.95;15.77;;;10.50;99.90;;;;;;5020221;28;20042;-58
2023/10/24 02:42:07;;;;;;;24.52;15.88;;;10.60;99.90;;;;;;5021836;28;20550;-57
2023/10/24 02:44:33;;;;;;;21.15;14.50;;;10.60;99.90;;;;;;5010401;28;20091;-58
2023/10/24 02:46:59;;;;;;;19.70;13.95;;;10.60;99.90;;;;;;5021666;28;20045;-58
2023/10/24 02:49:25;;;;;;;22.35;14.32;;;10.60;99.90;;;;;;5021221;28;20049;-60
2023/10/24 02:51:51;;;;;;;23.83;15.02;;;10.60;99.90;;;;;;5022365;28;20053;-60
2023/10/24 02:54:17;;;;;;;22.13;15.68;;;10.60;99.90;;;;;;5006301;28;20447;-60
2023/10/24 02:56:43;;;;;;;27.77;15.57;;;10.60;99.90;;;;;;5020005;28;20424;-58
2023/10/24 02:59:09;;;;;;;26.67;16.75;;;10.70;99.90;;;;;;5019899;28;20041;-58
2023/10/24 03:01:35;;;;;;;22.33;14.73;;;10.70;99.90;;;;;;5019072;28;20497;-57
2023/10/24 03:04:01;;;;;;;27.23;15.52;;;10.70;99.90;;;;;;5018201;28;20056;-58
2023/10/24 03:06:27;;;;;;;21.50;14.05;;;10.70;99.90;;;;;;5020030;28;20055;-58
2023/10/24 03:08:52;;;;;;;22.58;14.55;;;10.70;99.90;;;;;;5020162;28;20538;-56
2023/10/24 03:11:23;;;;;;;17.75;12.35;;;10.70;99.90;;;;;;5019442;28;20049;-59
2023/10/24 03:13:49;;;;;;;20.65;13.18;;;10.70;99.90;;;;;;5004753;28;20605;-57
2023/10/24 03:16:15;;;;;;;19.33;13.15;;;10.70;99.90;;;;;;5020110;28;20095;-58
2023/10/24 03:18:40;;;;;;;16.50;11.68;;;10.70;99.90;;;;;;5021186;28;20504;-58
2023/10/24 03:21:07;;;;;;;20.38;14.13;;;10.80;99.90;;;;;;5014215;28;20396;-58
2023/10/24 03:23:33;;;;;;;18.45;12.65;;;10.80;99.90;;;;;;5014443;28;20298;-58
2023/10/24 03:25:59;;;;;;;17.30;12.63;;;10.80;99.90;;;;;;5018058;28;20529;-60
2023/10/24 03:28:25;;;;;;;16.40;12.18;;;10.80;99.90;;;;;;5016094;28;20048;-60
2023/10/24 03:31:02;;;;;;;19.65;12.63;;;10.80;99.90;;;;;;5002478;28;20432;-60
2023/10/24 03:33:29;;;;;;;19.25;12.48;;;10.80;99.90;;;;;;5037187;28;20045;-60
2023/10/24 03:35:54;;;;;;;13.63;10.57;;;10.80;99.90;;;;;;5019524;28;20484;-59
2023/10/24 03:38:20;;;;;;;14.60;10.93;;;10.80;99.90;;;;;;5014992;28;20084;-60
2023/10/24 03:40:46;;;;;;;18.88;13.07;;;10.80;99.90;;;;;;5015280;28;20049;-60
2023/10/24 03:43:12;;;;;;;14.98;11.43;;;10.80;99.90;;;;;;5014647;28;20075;-60
2023/10/24 03:45:37;;;;;;;19.67;13.10;;;10.80;99.90;;;;;;5016114;28;20052;-57
2023/10/24 03:48:04;;;;;;;16.35;11.02;;;10.90;99.90;;;;;;5023195;28;20025;-58
2023/10/24 03:50:29;;;;;;;17.27;11.93;;;10.90;99.90;;;;;;5018180;28;20085;-58
2023/10/24 03:52:55;;;;;;;18.42;12.48;;;10.90;99.90;;;;;;5004211;28;20073;-59
2023/10/24 03:55:21;;;;;;;18.83;12.85;;;10.90;99.90;;;;;;5018953;28;20045;-57
2023/10/24 03:57:46;;;;;;;18.63;12.93;;;10.90;99.90;;;;;;5015311;28;20049;-59
2023/10/24 04:00:13;;;;;;;17.27;12.45;;;10.90;99.90;;;;;;5020912;28;20436;-57
2023/10/24 04:02:39;;;;;;;19.42;13.90;;;10.90;99.90;;;;;;5034298;28;20042;-58
2023/10/24 04:05:06;;;;;;;14.98;11.30;;;10.90;99.90;;;;;;5017158;28;20524;-60
2023/10/24 04:07:32;;;;;;;16.75;12.20;;;11.00;99.90;;;;;;5018111;28;20116;-59
2023/10/24 04:09:58;;;;;;;23.60;15.18;;;11.00;99.90;;;;;;5001820;28;20111;-60
2023/10/24 04:12:24;;;;;;;23.40;13.32;;;11.00;99.90;;;;;;5021291;28;20041;-60
2023/10/24 04:14:50;;;;;;;19.88;13.70;;;11.00;99.90;;;;;;5017556;28;20041;-60
2023/10/24 04:17:15;;;;;;;21.77;14.02;;;11.00;99.90;;;;;;5018326;28;20041;-58
2023/10/24 04:19:41;;;;;;;19.70;13.15;;;11.00;99.90;;;;;;5017643;28;20069;-58
2023/10/24 04:22:07;;;;;;;27.60;16.05;;;11.10;99.90;;;;;;5053197;22;20049;-56
2023/10/24 04:24:32;;;;;;;21.77;13.90;;;11.10;99.90;;;;;;5075037;28;20047;-55
2023/10/24 04:26:59;;;;;;;19.73;13.93;;;11.10;99.90;;;;;;5073113;28;20405;-55
2023/10/24 04:29:24;;;;;;;23.00;14.70;;;11.10;99.90;;;;;;5076798;28;20043;-55
2023/10/24 04:31:50;;;;;;;28.23;16.08;;;11.10;99.90;;;;;;5042005;28;20040;-55
2023/10/24 04:34:16;;;;;;;19.88;14.40;;;11.10;99.90;;;;;;5074405;28;20528;-55
2023/10/24 04:36:42;;;;;;;24.98;16.13;;;11.10;99.90;;;;;;5052720;28;20086;-52
2023/10/24 04:39:07;;;;;;;23.63;15.18;;;11.20;99.90;;;;;;5075461;28;20074;-56
2023/10/24 04:41:33;;;;;;;16.27;12.68;;;11.20;99.90;;;;;;5073478;28;20075;-56
2023/10/24 04:43:59;;;;;;;19.23;14.48;;;11.20;99.90;;;;;;5075285;28;20395;-55
2023/10/24 04:46:25;;;;;;;14.85;11.13;;;11.20;99.90;;;;;;5058052;28;20577;-56
2023/10/24 04:48:50;;;;;;;19.85;14.75;;;11.30;99.90;;;;;;5076236;28;20048;-55
2023/10/24 04:51:16;;;;;;;20.77;14.48;;;11.30;99.90;;;;;;5073078;28;20348;-56
2023/10/24 04:53:42;;;;;;;21.75;15.20;;;11.30;99.90;;;;;;5073678;28;20042;-55
2023/10/24 04:56:07;;;;;;;18.02;13.13;;;11.30;99.90;;;;;;5061420;28;20262;-54
2023/10/24 04:58:33;;;;;;;18.33;13.77;;;11.30;99.90;;;;;;5062365;28;20036;-56
2023/10/24 05:00:59;;;;;;;18.05;13.75;;;11.40;99.90;;;;;;5078390;28;20040;-53
2023/10/24 05:03:25;;;;;;;17.80;14.00;;;11.40;99.90;;;;;;5079643;28;20426;-52
2023/10/24 05:05:50;;;;;;;20.77;14.25;;;11.40;99.90;;;;;;5080234;28;20129;-55
2023/10/24 05:08:16;;;;;;;20.48;15.93;;;11.40;99.90;;;;;;5049015;28;20040;-55
2023/10/24 05:10:42;;;;;;;20.05;15.45;;;11.40;99.90;;;;;;5074974;28;20055;-55
2023/10/24 05:13:07;;;;;;;20.83;16.80;;;11.40;99.90;;;;;;5056863;28;20173;-54
2023/10/24 05:15:33;;;;;;;23.90;17.60;;;11.50;99.90;;;;;;5059059;28;20123;-55
2023/10/24 05:17:59;;;;;;;27.88;18.55;;;11.50;99.90;;;;;;5077606;28;20403;-54
2023/10/24 05:20:24;;;;;;;23.58;18.17;;;11.50;99.90;;;;;;5078708;28;20424;-55
2023/10/24 05:22:50;;;;;;;24.23;18.27;;;11.50;99.90;;;;;;5075933;28;20032;-56
2023/10/24 05:25:16;;;;;;;23.40;18.27;;;11.60;99.90;;;;;;5070338;28;20563;-56
2023/10/24 05:27:42;;;;;;;25.77;19.55;;;11.60;99.90;;;;;;5076637;28;20152;-56
2023/10/24 05:30:10;;;;;;;26.83;19.48;;;11.60;99.90;;;;;;5056691;28;20055;-56
2023/10/24 05:32:36;;;;;;;27.90;21.65;;;11.60;99.90;;;;;;5075035;28;20467;-56
2023/10/24 05:35:02;;;;;;;24.35;19.65;;;11.60;99.90;;;;;;5077737;28;22352;-56
2023/10/24 05:37:28;;;;;;;26.00;20.83;;;11.70;99.90;;;;;;5078229;28;20032;-56
2023/10/24 05:39:54;;;;;;;25.42;19.95;;;11.70;99.90;;;;;;5071322;28;20048;-56
2023/10/24 05:42:20;;;;;;;24.98;19.40;;;11.70;99.90;;;;;;5073770;28;20051;-56
2023/10/24 05:44:45;;;;;;;27.02;20.88;;;11.70;99.90;;;;;;5076776;28;20105;-56
2023/10/24 05:47:11;;;;;;;29.17;21.98;;;11.70;99.90;;;;;;5075681;28;20048;-56
2023/10/24 05:49:37;;;;;;;25.80;19.73;;;11.70;99.90;;;;;;5057131;28;20036;-55
2023/10/24 05:52:03;;;;;;;26.80;20.38;;;11.80;99.90;;;;;;5051939;28;20040;-55
2023/10/24 05:54:29;;;;;;;22.92;19.05;;;11.70;99.90;;;;;;5078849;28;20063;-55
2023/10/24 05:56:54;;;;;;;28.25;21.55;;;11.70;99.90;;;;;;5058639;28;20532;-55
2023/10/24 05:59:20;;;;;;;26.63;20.33;;;11.70;99.90;;;;;;5074468;28;20047;-54
2023/10/24 06:01:46;;;;;;;23.20;18.92;;;11.70;99.90;;;;;;5077053;28;20138;-53
2023/10/24 06:04:11;;;;;;;27.40;20.92;;;11.80;99.90;;;;;;5060016;28;20048;-52
2023/10/24 06:06:37;;;;;;;22.80;19.27;;;11.80;99.90;;;;;;5077616;28;20039;-53
2023/10/24 06:09:03;;;;;;;23.52;20.02;;;11.80;99.90;;;;;;5072228;28;20036;-56
2023/10/24 06:11:28;;;;;;;25.52;20.52;;;11.80;99.90;;;;;;5071363;28;20044;-55
2023/10/24 06:13:54;;;;;;;24.33;19.90;;;11.80;99.90;;;;;;5078317;28;20127;-55
2023/10/24 06:16:23;;;;;;;26.58;20.27;;;11.80;99.90;;;;;;5057177;28;20048;-56
2023/10/24 06:18:49;;;;;;;25.70;20.42;;;11.80;99.90;;;;;;5075116;28;20036;-56
2023/10/24 06:21:15;;;;;;;26.90;19.80;;;11.80;99.90;;;;;;5058774;28;20127;-54
2023/10/24 06:23:41;;;;;;;26.48;20.33;;;11.80;99.90;;;;;;5042043;28;20066;-55
2023/10/24 06:26:14;;;;;;;26.63;20.58;;;11.80;99.90;;;;;;5072850;28;20175;-54
2023/10/24 06:28:40;;;;;;;23.27;18.60;;;11.80;99.90;;;;;;5072251;28;20052;-54
2023/10/24 06:31:06;;;;;;;24.45;19.58;;;11.90;99.90;;;;;;5061935;28;20040;-56
2023/10/24 06:33:32;;;;;;;27.08;20.60;;;11.80;99.90;;;;;;5077000;28;20040;-54
2023/10/24 06:36:00;;;;;;;22.17;18.35;;;11.90;99.90;;;;;;5075768;28;20040;-54
2023/10/24 06:38:26;;;;;;;24.08;20.45;;;11.80;99.90;;;;;;5072018;28;20040;-53
2023/10/24 06:40:52;;;;;;;25.67;20.20;;;11.90;99.90;;;;;;5035779;28;20782;-54
2023/10/24 06:43:18;;;;;;;24.25;20.38;;;11.80;99.90;;;;;;5068629;28;20678;-54
2023/10/24 06:45:45;;;;;;;25.95;19.60;;;11.80;99.90;;;;;;5073914;28;20255;-54
2023/10/24 06:48:11;;;;;;;22.95;18.63;;;11.90;99.90;;;;;;5075579;28;20088;-53
2023/10/24 06:50:41;;;;;;;23.17;18.42;;;11.80;99.90;;;;;;5074182;28;20048;-55
2023/10/24 06:53:08;;;;;;;22.25;17.75;;;11.80;99.90;;;;;;5073300;28;20037;-55
2023/10/24 06:55:34;;;;;;;20.90;17.27;;;11.90;99.90;;;;;;5058758;28;20495;-55
2023/10/24 06:58:00;;;;;;;23.40;18.58;;;11.90;99.90;;;;;;5044099;28;20070;-56
2023/10/24 07:00:26;;;;;;;22.00;17.23;;;11.90;99.90;;;;;;5074065;28;20070;-55
2023/10/24 07:02:52;;;;;;;21.25;16.20;;;11.90;99.90;;;;;;5075315;28;20408;-54
2023/10/24 07:05:21;;;;;;;20.45;16.30;;;11.90;99.90;;;;;;5073929;28;20463;-55
2023/10/24 07:07:47;;;;;;;17.10;14.45;;;11.90;99.90;;;;;;5077121;28;20048;-54
2023/10/24 07:10:13;;;;;;;15.80;13.77;;;11.90;99.90;;;;;;5079161;28;20043;-56
2023/10/24 07:12:39;;;;;;;15.68;13.05;;;11.90;99.90;;;;;;5082701;28;20066;-53
2023/10/24 07:15:05;;;;;;;17.13;12.43;;;11.90;99.90;;;;;;5076924;28;20044;-55
2023/10/24 07:17:31;;;;;;;14.98;11.57;;;11.90;99.90;;;;;;5074560;28;20040;-54
2023/10/24 07:20:01;;;;;;;15.90;12.35;;;11.80;99.90;;;;;;5074123;28;20048;-55
2023/10/24 07:22:28;;;;;;;13.73;11.27;;;11.80;99.90;;;;;;5073479;28;20047;-54
2023/10/24 07:24:54;;;;;;;14.07;10.90;;;11.80;99.90;;;;;;5079233;28;20044;-54
2023/10/24 07:27:21;;;;;;;19.27;12.05;;;11.80;99.90;;;;;;5061389;28;20052;-51
2023/10/24 07:29:47;;;;;;;16.83;11.13;;;11.80;99.90;;;;;;5077116;28;20119;-55
2023/10/24 07:32:13;;;;;;;13.75;11.18;;;11.80;99.90;;;;;;5072658;28;22606;-54
2023/10/24 07:34:41;;;;;;;14.73;11.45;;;11.80;99.90;;;;;;5076611;28;20106;-55
2023/10/24 07:37:10;;;;;;;15.15;11.27;;;11.80;99.90;;;;;;5074285;28;20075;-53
2023/10/24 07:39:37;;;;;;;14.82;11.18;;;11.70;99.90;;;;;;5076777;28;20044;-52
2023/10/24 07:42:03;;;;;;;18.20;11.43;;;11.70;99.90;;;;;;5059881;28;20560;-55
2023/10/24 07:44:29;;;;;;;15.80;12.10;;;11.80;99.90;;;;;;5080964;28;20126;-55
2023/10/24 07:46:55;;;;;;;17.45;12.50;;;11.80;99.90;;;;;;5082627;28;20449;-55
2023/10/24 07:49:21;;;;;;;17.70;12.55;;;11.80;99.90;;;;;;5070364;28;20097;-56
2023/10/24 07:51:47;;;;;;;17.17;12.63;;;11.80;99.90;;;;;;5069624;28;20487;-55
2023/10/24 07:54:13;;;;;;;17.85;12.45;;;11.80;99.90;;;;;;5056345;28;20054;-54
2023/10/24 07:56:42;;;;;;;19.55;13.85;;;11.80;99.90;;;;;;5054326;28;20040;-55
2023/10/24 07:59:08;;;;;;;20.38;14.10;;;11.80;99.90;;;;;;5073063;28;20086;-53
2023/10/24 08:01:34;;;;;;;19.60;13.98;;;11.80;99.90;;;;;;5077950;28;20040;-52
2023/10/24 08:04:00;;;;;;;19.75;14.20;;;11.80;99.90;;;;;;5074426;28;20040;-54
2023/10/24 08:06:26;;;;;;;23.08;14.85;;;11.80;99.90;;;;;;5075169;28;20052;-54
2023/10/24 08:08:52;;;;;;;19.33;14.15;;;11.80;99.90;;;;;;5076826;28;20043;-56
2023/10/24 08:11:18;;;;;;;23.05;15.48;;;11.80;99.90;;;;;;5076382;28;20036;-54
2023/10/24 08:13:43;;;;;;;22.45;14.50;;;11.80;99.90;;;;;;5052501;28;20036;-56
2023/10/24 08:16:09;;;;;;;23.70;15.32;;;11.80;99.90;;;;;;5057665;28;20036;-56
2023/10/24 08:18:35;;;;;;;25.45;15.68;;;11.80;99.90;;;;;;5056353;28;20136;-54
2023/10/24 08:21:01;;;;;;;26.52;16.05;;;11.80;99.90;;;;;;5073020;28;20032;-55
2023/10/24 08:23:30;;;;;;;24.27;16.92;;;11.80;99.90;;;;;;5070829;28;20047;-54
2023/10/24 08:25:56;;;;;;;21.48;15.25;;;11.80;99.90;;;;;;5072665;28;20036;-55
2023/10/24 08:28:23;;;;;;;28.98;17.45;;;11.80;99.90;;;;;;5074794;28;20040;-56
2023/10/24 08:30:48;;;;;;;23.58;15.27;;;11.80;99.90;;;;;;5075275;28;20040;-56
2023/10/24 08:33:15;;;;;;;24.58;16.25;;;11.80;99.90;;;;;;5044265;28;20036;-55
2023/10/24 08:35:41;;;;;;;22.58;16.15;;;11.80;99.90;;;;;;5077240;28;20055;-55
2023/10/24 08:38:06;;;;;;;24.83;16.65;;;11.80;99.90;;;;;;5077812;28;20170;-55
2023/10/24 08:40:32;;;;;;;25.73;17.35;;;11.80;99.90;;;;;;5073702;28;20050;-55
2023/10/24 08:42:58;;;;;;;24.83;17.25;;;11.90;99.90;;;;;;5074623;28;20067;-55
2023/10/24 08:45:27;;;;;;;26.05;17.40;;;11.80;99.90;;;;;;5076826;28;20502;-54
2023/10/24 08:47:54;;;;;;;27.40;18.80;;;11.80;99.90;;;;;;5076536;28;20047;-55
2023/10/24 08:50:19;;;;;;;30.90;17.52;;;11.80;99.90;;;;;;5082535;28;20024;-55
2023/10/24 08:52:46;;;;;;;26.50;17.88;;;11.80;99.90;;;;;;5078751;28;20044;-55
2023/10/24 08:55:12;;;;;;;28.40;18.75;;;11.80;99.90;;;;;;5054879;28;20089;-54
2023/10/24 08:57:42;;;;;;;24.42;18.05;;;11.80;99.90;;;;;;5076028;28;20082;-56
2023/10/24 09:00:13;;;;;;;25.88;18.45;;;11.80;99.90;;;;;;5082782;28;20032;-55
2023/10/24 09:02:41;;;;;;;29.58;18.90;;;11.80;99.90;;;;;;5082495;28;20130;-56
2023/10/24 09:05:14;;;;;;;25.58;18.48;;;11.80;99.90;;;;;;5076714;28;20451;-54
2023/10/24 09:07:40;;;;;;;29.50;19.93;;;11.80;99.90;;;;;;5080789;28;20518;-55
2023/10/24 09:10:07;;;;;;;24.00;18.15;;;11.80;99.90;;;;;;5075436;28;20044;-55
2023/10/24 09:12:34;;;;;;;29.48;18.67;;;11.80;99.90;;;;;;5063416;28;20048;-56
2023/10/24 09:15:01;;;;;;;26.42;19.15;;;11.90;99.90;;;;;;5084522;28;20043;-56
2023/10/24 09:17:30;;;;;;;27.83;19.50;;;11.90;99.90;;;;;;5077019;28;20496;-55
2023/10/24 09:19:56;;;;;;;28.27;19.80;;;11.90;99.90;;;;;;5083076;28;20069;-54
2023/10/24 09:22:22;;;;;;;26.65;19.95;;;11.90;99.90;;;;;;5082772;28;20331;-55
2023/10/24 09:24:49;;;;;;;26.00;19.08;;;11.90;99.90;;;;;;5084075;28;20040;-54
2023/10/24 09:27:23;;;;;;;26.50;19.52;;;12.00;99.90;;;;;;5076597;28;20324;-56
2023/10/24 09:29:49;;;;;;;26.77;19.13;;;12.00;99.90;;;;;;5082018;28;20052;-54
2023/10/24 09:32:16;;;;;;;26.50;18.30;;;12.00;99.90;;;;;;5081701;28;20503;-55
2023/10/24 09:34:46;;;;;;;27.77;20.33;;;12.00;99.90;;;;;;5076468;28;20056;-55
2023/10/24 09:37:13;;;;;;;24.90;19.60;;;12.00;99.90;;;;;;5079212;28;20075;-56
2023/10/24 09:40:01;;;;;;;25.50;19.88;;;12.00;99.90;;;;;;5080506;28;20079;-56
2023/10/24 09:42:29;;;;;;;26.77;20.63;;;12.10;99.90;;;;;;5090279;28;20163;-56
2023/10/24 09:44:57;;;;;;;28.27;20.05;;;12.00;99.90;;;;;;5045293;28;20052;-55
2023/10/24 09:47:24;;;;;;;25.83;19.05;;;12.00;99.90;;;;;;5074750;28;20051;-55
2023/10/24 09:49:53;;;;;;;26.92;19.65;;;12.00;99.90;;;;;;5060500;28;20422;-54
2023/10/24 09:52:20;;;;;;;25.35;19.55;;;12.00;99.90;;;;;;5073875;28;20047;-54
2023/10/24 09:54:52;;;;;;;28.15;21.55;;;12.00;99.90;;;;;;5075392;28;20301;-56
2023/10/24 09:57:22;;;;;;;25.17;19.05;;;12.00;99.90;;;;;;5078160;28;20390;-56
2023/10/24 09:59:55;;;;;;;28.52;19.58;;;11.90;99.90;;;;;;5040933;28;20372;-56
2023/10/24 10:02:23;;;;;;;27.48;19.05;;;11.90;99.90;;;;;;5080716;28;20058;-55
2023/10/24 10:04:50;;;;;;;23.25;17.80;;;11.90;99.90;;;;;;5060783;28;20040;-54
2023/10/24 10:07:17;;;;;;;26.00;19.00;;;11.90;99.90;;;;;;5071841;28;20055;-56
2023/10/24 10:09:47;;;;;;;30.52;20.35;;;11.90;99.90;;;;;;5081144;28;20054;-56
2023/10/24 10:12:17;;;;;;;23.20;19.20;;;11.90;99.90;;;;;;5057400;28;20471;-54
2023/10/24 10:14:57;;;;;;;26.55;20.25;;;11.90;99.90;;;;;;5074393;28;20513;-55
2023/10/24 10:17:44;;;;;;;29.42;20.10;;;12.00;99.90;;;;;;5064222;28;20070;-54
2023/10/24 10:20:17;;;;;;;25.30;18.52;;;12.00;99.90;;;;;;5074628;28;20059;-55
2023/10/24 10:23:05;;;;;;;26.27;19.48;;;12.00;99.90;;;;;;5082890;22;20044;-59
2023/10/24 10:25:45;;;;;;;26.33;18.80;;;12.00;99.90;;;;;;5059840;28;20430;-60
2023/10/24 10:28:49;;;;;;;25.38;19.10;;;12.00;99.90;;;;;;5066754;28;20049;-60
2023/10/24 10:31:27;;;;;;;27.10;18.80;;;12.00;99.90;;;;;;5024801;28;20589;-59
2023/10/24 10:33:55;;;;;;;26.95;18.52;;;12.00;99.90;;;;;;5077814;28;20048;-60
2023/10/24 10:36:20;;;;;;;28.13;19.15;;;11.90;99.90;;;;;;5080718;28;20411;-60
2023/10/24 10:38:47;;;;;;;28.10;19.40;;;11.90;99.90;;;;;;5078854;28;20059;-60
2023/10/24 10:43:49;;;;;;;26.33;19.25;;;11.90;99.90;;;;;;5079453;28;20043;-60
2023/10/24 10:46:19;;;;;;;23.40;18.13;;;11.90;99.90;;;;;;5084957;28;20036;-60
2023/10/24 10:48:48;;;;;;;25.30;18.92;;;12.00;99.90;;;;;;5079086;28;20060;-61
2023/10/24 10:51:22;;;;;;;23.70;18.25;;;12.00;99.90;;;;;;5078470;28;20119;-60
2023/10/24 10:53:48;;;;;;;26.55;18.55;;;12.00;99.90;;;;;;5081998;28;20113;-58
2023/10/24 10:56:25;;;;;;;26.45;18.55;;;12.00;99.90;;;;;;5061172;28;20482;-60
2023/10/24 10:59:11;;;;;;;25.02;18.42;;;12.10;99.90;;;;;;5083882;28;20472;-59
2023/10/24 11:02:04;;;;;;;25.55;18.17;;;12.10;99.90;;;;;;5077828;28;20082;-60
2023/10/24 11:04:30;;;;;;;24.98;18.58;;;12.10;99.90;;;;;;5082358;28;20032;-60
2023/10/24 11:06:57;;;;;;;24.48;18.27;;;12.10;99.90;;;;;;5081372;28;20040;-60
2023/10/24 11:09:32;;;;;;;28.40;21.20;;;12.20;99.90;;;;;;5079764;28;20498;-61
2023/10/24 11:12:20;;;;;;;26.30;18.60;;;12.20;99.90;;;;;;5075913;28;20093;-60
2023/10/24 11:15:05;;;;;;;23.58;18.38;;;12.30;99.90;;;;;;5083507;28;20513;-59
2023/10/24 11:17:31;;;;;;;27.33;19.17;;;12.30;99.90;;;;;;5083551;28;20118;-59
2023/10/24 11:20:02;;;;;;;26.30;19.80;;;12.30;99.90;;;;;;5078900;28;20154;-59
2023/10/24 11:22:31;;;;;;;26.42;19.23;;;12.40;99.90;;;;;;5085325;28;20183;-59
2023/10/24 11:24:57;;;;;;;25.52;19.65;;;12.40;99.90;;;;;;5064284;28;20040;-59
2023/10/24 11:27:23;;;;;;;25.67;18.77;;;12.40;99.90;;;;;;5060339;28;20138;-59
2023/10/24 11:29:50;;;;;;;26.15;20.50;;;12.40;99.90;;;;;;5066419;28;20616;-59
2023/10/24 11:32:16;;;;;;;25.25;20.48;;;12.40;99.90;;;;;;5080519;28;20040;-58
2023/10/24 11:34:42;;;;;;;25.63;19.92;;;12.40;99.90;;;;;;5080977;28;20032;-58
2023/10/24 11:37:08;;;;;;;26.92;21.13;;;12.40;99.90;;;;;;5080967;28;20063;-59
2023/10/24 11:39:35;;;;;;;24.30;19.95;;;12.40;99.90;;;;;;5097155;28;20041;-58
2023/10/24 11:42:04;;;;;;;27.40;20.48;;;12.40;99.90;;;;;;5077785;28;20045;-59
2023/10/24 11:44:30;;;;;;;27.17;20.88;;;12.40;99.90;;;;;;5073713;28;20055;-60
2023/10/24 11:46:56;;;;;;;26.08;20.08;;;12.40;99.90;;;;;;5062316;28;20036;-60
2023/10/24 11:49:31;;;;;;;24.70;19.42;;;12.40;99.90;;;;;;5080059;28;20052;-58
2023/10/24 11:51:57;;;;;;;27.15;20.83;;;12.40;99.90;;;;;;5082035;28;20051;-58
2023/10/24 11:54:25;;;;;;;25.40;18.77;;;12.40;99.90;;;;;;5081771;28;20036;-58
2023/10/24 11:56:51;;;;;;;26.15;20.10;;;12.40;99.90;;;;;;5099540;28;20083;-60
2023/10/24 11:59:17;;;;;;;23.80;18.90;;;12.40;99.90;;;;;;5077667;28;20036;-60
2023/10/24 12:01:43;;;;;;;23.60;19.65;;;12.40;99.90;;;;;;5084095;28;20036;-59
2023/10/24 12:04:12;;;;;;;27.35;19.33;;;12.40;99.90;;;;;;5082847;28;20036;-61
2023/10/24 12:06:38;;;;;;;21.83;18.60;;;12.40;99.90;;;;;;5085836;28;20048;-59
2023/10/24 12:09:04;;;;;;;24.63;19.17;;;12.40;99.90;;;;;;5067726;28;20042;-60
2023/10/24 12:11:32;;;;;;;24.30;19.30;;;12.40;99.90;;;;;;5085206;28;20040;-58
2023/10/24 12:13:58;;;;;;;22.88;20.15;;;12.40;99.90;;;;;;5087823;28;20046;-60
2023/10/24 12:16:31;;;;;;;24.17;19.45;;;12.40;99.90;;;;;;5083489;28;20362;-58
2023/10/24 12:18:57;;;;;;;25.10;19.02;;;12.40;99.90;;;;;;5085104;28;20414;-60
2023/10/24 12:21:23;;;;;;;24.73;19.15;;;12.40;99.90;;;;;;5086039;28;20091;-60
2023/10/24 12:23:49;;;;;;;25.05;17.95;;;12.40;99.90;;;;;;5074368;28;20044;-60
2023/10/24 12:26:15;;;;;;;25.38;19.00;;;12.40;99.90;;;;;;5079165;28;20629;-60
2023/10/24 12:28:44;;;;;;;24.13;18.42;;;12.40;99.90;;;;;;5086963;28;20040;-59
2023/10/24 12:31:11;;;;;;;25.20;18.92;;;12.40;99.90;;;;;;5082062;28;20506;-60